Station Historical Data
 
Daily Summary for February 20, 2020 Units:  English    Metric   Both
« Previous Day
Next Day »
Daily Weekly Monthly Yearly Custom
  Current: High: Low: Average:
Temperature: 34.7 °F 45.6 °F 33.9 °F 40.5 °F
Dew Point: 33.9 °F 42.9 °F 32.9 °F 37.3 °F
Humidity: 97% 97% 73% 89%
Wind Speed: 0mph 2.3mph 0mph 0.2mph
Wind Gust: 1mph 7mph - -
WindCalm - - East
Pressure: 30.32 in 30.40 in 30.29 in -
Precipitation: 0.216 in      
Historical Graphs
 
 
Tabular Data for February 20, 2020
Time Temperature Dew Point Pressure Wind Wind Speed Wind Gust Humidity Rainfall Rate (Hourly) solar Conditions
00:00 45.6 °F 42.5 °F 30.40 in Calm     89% 0 in WeatherDisplay:10.37 W/m2 OVC
00:05 45.6 °F 42 °F 30.39 in Calm     87% 0 in WeatherDisplay:10.37 W/m2 OVC
00:10 45.5 °F 42.4 °F 30.39 in Calm     89% 0 in WeatherDisplay:10.37 W/m2 OVC
00:15 45.6 °F 42.5 °F 30.39 in Calm     89% 0 in WeatherDisplay:10.37 W/m2 OVC
00:20 45.5 °F 42.4 °F 30.39 in Calm     89% 0 in WeatherDisplay:10.37 W/m2 OVC
00:25 45.3 °F 41.4 °F 30.38 in Calm     86% 0 in WeatherDisplay:10.37 W/m2 OVC
00:30 45.3 °F 42.2 °F 30.38 in Calm     89% 0 in WeatherDisplay:10.37 W/m2 OVC
00:35 45.3 °F 42.3 °F 30.38 in Calm     89% 0 in WeatherDisplay:10.37 W/m2 OVC
00:40 45.4 °F 42.6 °F 30.38 in Calm     90% 0 in WeatherDisplay:10.37 W/m2 OVC
00:45 45.4 °F 42.9 °F 30.39 in Calm     91% 0 in WeatherDisplay:10.37 W/m2 OVC
00:50 45.4 °F 42.9 °F 30.39 in Calm     91% 0 in WeatherDisplay:10.37 W/m2 OVC
00:55 45.3 °F 42.5 °F 30.39 in Calm     90% 0 in WeatherDisplay:10.37 W/m2 OVC
01:00 45.3 °F 42.8 °F 30.39 in Calm     91% 0 in WeatherDisplay:10.37 W/m2 OVC
01:05 45.3 °F 42.8 °F 30.38 in Calm     91% 0 in WeatherDisplay:10.37 W/m2 OVC
01:10 45.2 °F 42.4 °F 30.38 in Calm     90% 0 in WeatherDisplay:10.37 W/m2 OVC
01:15 45.1 °F 41.8 °F 30.38 in Calm     88% 0 in WeatherDisplay:10.37 W/m2 OVC
01:20 45.1 °F 42.1 °F 30.38 in Calm     89% 0 in WeatherDisplay:10.37 W/m2 OVC
01:25 45.1 °F 42.3 °F 30.38 in Calm     90% 0 in WeatherDisplay:10.37 W/m2 OVC
01:30 45.1 °F 42.3 °F 30.38 in Calm     90% 0 in WeatherDisplay:10.37 W/m2 OVC
01:35 45.1 °F 42.3 °F 30.38 in Calm     90% 0 in WeatherDisplay:10.37 W/m2 OVC
01:40 45 °F 42.2 °F 30.38 in Calm     90% 0 in WeatherDisplay:10.37 W/m2 OVC
01:45 44.8 °F 41.5 °F 30.37 in Calm     88% 0 in WeatherDisplay:10.37 W/m2 OVC
01:50 44.8 °F 41.8 °F 30.38 in Calm     89% 0 in WeatherDisplay:10.37 W/m2 OVC
01:55 44.7 °F 41.7 °F 30.37 in Calm     89% 0 in WeatherDisplay:10.37 W/m2 OVC
02:00 44.7 °F 41.4 °F 30.37 in Calm     88% 0 in WeatherDisplay:10.37 W/m2 OVC
02:05 44.7 °F 41.7 °F 30.38 in Calm     89% 0 in WeatherDisplay:10.37 W/m2 OVC
02:10 44.7 °F 41.4 °F 30.38 in Calm     88% 0 in WeatherDisplay:10.37 W/m2 OVC
02:15 44.7 °F 41.1 °F 30.38 in Calm     87% 0 in WeatherDisplay:10.37 W/m2 OVC
02:20 44.8 °F 41.2 °F 30.37 in Calm     87% 0 in WeatherDisplay:10.37 W/m2 OVC
02:25 44.8 °F 40.3 °F 30.36 in Calm     84% 0 in WeatherDisplay:10.37 W/m2 OVC
02:30 44.8 °F 40.9 °F 30.36 in Calm     86% 0 in WeatherDisplay:10.37 W/m2 OVC
02:35 44.8 °F 40.3 °F 30.36 in Calm     84% 0 in WeatherDisplay:10.37 W/m2 OVC
02:40 44.8 °F 40 °F 30.36 in Calm     83% 0 in WeatherDisplay:10.37 W/m2 OVC
02:45 44.7 °F 40.2 °F 30.36 in Calm     84% 0 in WeatherDisplay:10.37 W/m2 OVC
02:50 44.7 °F 40.5 °F 30.36 in Calm     85% 0 in WeatherDisplay:10.37 W/m2 OVC
02:55 44.6 °F 40.7 °F 30.36 in Calm     86% 0 in WeatherDisplay:10.37 W/m2 OVC
03:00 44.5 °F 40.6 °F 30.36 in Calm     86% 0 in WeatherDisplay:10.37 W/m2 OVC
03:05 44.5 °F 40.5 °F 30.36 in Calm     86% 0 in WeatherDisplay:10.37 W/m2 OVC
03:10 44.5 °F 40 °F 30.36 in Calm     84% 0 in WeatherDisplay:10.37 W/m2 OVC
03:15 44.6 °F 39.7 °F 30.35 in Calm     83% 0 in WeatherDisplay:10.37 W/m2 OVC
03:20 44.6 °F 40.1 °F 30.35 in Calm     84% 0 in WeatherDisplay:10.37 W/m2 OVC
03:25 44.7 °F 40.7 °F 30.35 in Calm     86% 0 in WeatherDisplay:10.37 W/m2 OVC
03:30 44.6 °F 40.1 °F 30.35 in Calm     84% 0 in WeatherDisplay:10.37 W/m2 OVC
03:35 44.6 °F 40.1 °F 30.35 in Calm     84% 0 in WeatherDisplay:10.37 W/m2 OVC
03:40 44.6 °F 39.8 °F 30.35 in Calm     83% 0 in WeatherDisplay:10.37 W/m2 OVC
03:45 44.7 °F 40.2 °F 30.34 in Calm     84% 0 in WeatherDisplay:10.37 W/m2 OVC
03:50 44.7 °F 40.2 °F 30.35 in Calm   1 mph 84% 0 in WeatherDisplay:10.37 W/m2 OVC
03:55 44.7 °F 40.2 °F 30.35 in Calm     84% 0 in WeatherDisplay:10.37 W/m2 OVC
04:00 44.7 °F 39.9 °F 30.35 in Calm   1 mph 83% 0 in WeatherDisplay:10.37 W/m2 OVC
04:05 44.7 °F 39.9 °F 30.34 in Calm     83% 0 in WeatherDisplay:10.37 W/m2 OVC
04:10 44.7 °F 39.9 °F 30.35 in East 1.2 mph   83% 0 in WeatherDisplay:10.37 W/m2 OVC
04:15 44.8 °F 39.3 °F 30.34 in Calm     81% 0 in WeatherDisplay:10.37 W/m2 OVC
04:20 44.7 °F 39.5 °F 30.35 in Calm     82% 0 in WeatherDisplay:10.37 W/m2 OVC
04:25 44.7 °F 39.2 °F 30.34 in Calm     81% 0 in WeatherDisplay:10.37 W/m2 OVC
04:30 44.6 °F 38.5 °F 30.34 in Calm   1 mph 79% 0 in WeatherDisplay:10.37 W/m2 OVC
04:35 44.6 °F 38.5 °F 30.34 in Calm     79% 0 in WeatherDisplay:10.37 W/m2 OVC
04:40 44.6 °F 38.5 °F 30.34 in Calm     79% 0 in WeatherDisplay:10.37 W/m2 OVC
04:45 44.5 °F 39 °F 30.34 in Calm     81% 0 in WeatherDisplay:10.37 W/m2 OVC
04:50 44.5 °F 39.3 °F 30.34 in Calm   1 mph 82% 0 in WeatherDisplay:10.37 W/m2 OVC
04:55 44.5 °F 39.3 °F 30.35 in Calm     82% 0 in WeatherDisplay:10.37 W/m2 OVC
05:00 44.4 °F 38 °F 30.35 in Calm     78% 0 in WeatherDisplay:10.37 W/m2 OVC
05:05 44.4 °F 38.6 °F 30.35 in Calm     80% 0 in WeatherDisplay:10.37 W/m2 OVC
05:10 44.4 °F 38.9 °F 30.35 in Calm     81% 0 in WeatherDisplay:10.37 W/m2 OVC
05:15 44.4 °F 38.9 °F 30.34 in Calm     81% 0 in WeatherDisplay:10.37 W/m2 OVC
05:20 44.3 °F 37.9 °F 30.34 in Calm     78% 0 in WeatherDisplay:10.37 W/m2 OVC
05:25 44.3 °F 38.2 °F 30.34 in Calm     79% 0 in WeatherDisplay:10.37 W/m2 OVC
05:30 44.2 °F 37.4 °F 30.34 in Calm   1 mph 77% 0 in WeatherDisplay:10.37 W/m2 OVC
05:35 44.1 °F 37.7 °F 30.34 in Calm     78% 0 in WeatherDisplay:10.37 W/m2 OVC
05:40 44.1 °F 38.3 °F 30.35 in Calm     80% 0 in WeatherDisplay:10.37 W/m2 OVC
05:45 44 °F 37.9 °F 30.35 in Calm   1 mph 79% 0 in WeatherDisplay:10.37 W/m2 OVC
05:50 43.9 °F 37.2 °F 30.34 in Calm   1 mph 77% 0 in WeatherDisplay:10.37 W/m2 OVC
05:55 43.9 °F 37.2 °F 30.34 in East 1 mph 1 mph 77% 0 in WeatherDisplay:10.37 W/m2 OVC
06:00 43.8 °F 37.1 °F 30.34 in Calm   1 mph 77% 0 in WeatherDisplay:10.37 W/m2 OVC
06:05 43.8 °F 37.4 °F 30.35 in Calm     78% 0 in WeatherDisplay:10.37 W/m2 OVC
06:10 43.7 °F 38 °F 30.35 in Calm     80% 0 in WeatherDisplay:10.37 W/m2 OVC
06:15 43.7 °F 36.3 °F 30.35 in Calm   2 mph 75% 0 in WeatherDisplay:10.37 W/m2 OVC
06:20 43.7 °F 36 °F 30.35 in East 2.3 mph   74% 0 in WeatherDisplay:10.37 W/m2 OVC
06:25 43.7 °F 36.6 °F 30.34 in Calm   1 mph 76% 0 in WeatherDisplay:10.37 W/m2 OVC
06:30 43.6 °F 36.5 °F 30.35 in Calm     76% 0 in WeatherDisplay:10.37 W/m2 OVC
06:35 43.6 °F 37.2 °F 30.35 in Calm   1 mph 78% 0 in WeatherDisplay:10.37 W/m2 OVC
06:40 43.5 °F 36.8 °F 30.35 in East 1.2 mph   77% 0 in WeatherDisplay:10.37 W/m2 OVC
06:45 43.5 °F 36.8 °F 30.35 in Calm   1 mph 77% 0 in WeatherDisplay:10.37 W/m2 OVC
06:50 43.4 °F 36 °F 30.35 in Calm   1 mph 75% 0 in WeatherDisplay:10.37 W/m2 OVC
06:55 43.4 °F 36 °F 30.35 in Calm   1 mph 75% 0 in WeatherDisplay:10.37 W/m2 OVC
07:00 43.3 °F 36.2 °F 30.35 in Calm   1 mph 76% 0 in WeatherDisplay:10.37 W/m2 OVC
07:05 43.3 °F 36.2 °F 30.35 in East 1.2 mph 0.1 mph 76% 0 in WeatherDisplay:10.37 W/m2 OVC
07:10 43.2 °F 36.1 °F 30.36 in Calm   1 mph 76% 0 in WeatherDisplay:10.37 W/m2 OVC
07:15 43.2 °F 36.5 °F 30.35 in Calm   1 mph 77% 0 in WeatherDisplay:10.37 W/m2 OVC
07:20 43.1 °F 37 °F 30.35 in Calm   1 mph 79% 0 in WeatherDisplay:10.37 W/m2 OVC
07:25 43.1 °F 35.4 °F 30.35 in East 1 mph 2 mph 74% 0 in WeatherDisplay:10.37 W/m2 OVC
07:30 43.1 °F 35 °F 30.36 in Calm   1 mph 73% 0 in WeatherDisplay:10.37 W/m2 OVC
07:35 43.1 °F 36.4 °F 30.36 in East 1.2 mph   77% 0 in WeatherDisplay:10.37 W/m2 OVC
07:40 43 °F 36.9 °F 30.36 in Calm   1 mph 79% 0 in WeatherDisplay:10.37 W/m2 OVC
07:45 42.9 °F 35.9 °F 30.36 in Calm   1 mph 76% 0 in WeatherDisplay:10.37 W/m2 OVC
07:50 42.9 °F 36.8 °F 30.36 in Calm   1 mph 79% 0 in WeatherDisplay:10.37 W/m2 OVC
07:55 42.8 °F 37.1 °F 30.36 in Calm   1 mph 80% 0 in WeatherDisplay:10.37 W/m2 OVC
08:00 42.7 °F 37 °F 30.37 in Calm   1 mph 80% 0 in WeatherDisplay:10.37 W/m2 OVC
08:05 42.7 °F 36.6 °F 30.37 in Calm   1 mph 79% 0 in WeatherDisplay:10.37 W/m2 -RA
08:10 42.7 °F 36.3 °F 30.37 in Calm   1 mph 78% 0 in WeatherDisplay:10.37 W/m2 -RA
08:15 42.6 °F 36.5 °F 30.38 in Calm     79% 0 in WeatherDisplay:10.37 W/m2 -RA
08:20 42.6 °F 37.2 °F 30.38 in Calm     81% 0 in WeatherDisplay:10.37 W/m2 -RA
08:25 42.4 °F 36 °F 30.39 in Calm   1 mph 78% 0 in WeatherDisplay:10.37 W/m2 -RA
08:30 42.4 °F 36 °F 30.39 in East 1.2 mph   78% 0 in WeatherDisplay:10.37 W/m2 -RA
08:35 42.4 °F 37.3 °F 30.39 in Calm     82% 0 in WeatherDisplay:10.37 W/m2 -RA
08:40 42.4 °F 37.6 °F 30.39 in Calm     83% 0 in WeatherDisplay:10.37 W/m2 -RA
08:45 42.4 °F 37.9 °F 30.39 in Calm     84% 0 in WeatherDisplay:10.37 W/m2 -RA
08:50 42.4 °F 37.9 °F 30.39 in Calm   1 mph 84% 0 in WeatherDisplay:10.37 W/m2 -RA
08:55 42.2 °F 37.5 °F 30.40 in Calm     83% 0 in WeatherDisplay:10.37 W/m2 -RA
09:00 42.1 °F 37.3 °F 30.39 in Calm   1 mph 83% 0 in WeatherDisplay:10.37 W/m2 -RA
09:05 42 °F 37.2 °F 30.39 in Calm   1 mph 83% 0 in WeatherDisplay:10.37 W/m2 -RA
09:10 42 °F 38.1 °F 30.39 in Calm     86% 0 in WeatherDisplay:10.37 W/m2 -RA
09:15 41.9 °F 38 °F 30.38 in Calm   1 mph 86% 0 in WeatherDisplay:10.37 W/m2 -RA
09:20 41.8 °F 37 °F 30.38 in Calm   1 mph 83% 0 in WeatherDisplay:10.37 W/m2 -RA
09:25 41.7 °F 37.5 °F 30.38 in Calm   1 mph 85% 0 in WeatherDisplay:10.37 W/m2 -RA
09:30 41.7 °F 37.2 °F 30.37 in East 1.2 mph   84% 0 in WeatherDisplay:10.37 W/m2 -RA
09:35 41.6 °F 36.2 °F 30.37 in Calm   1 mph 81% 0 in WeatherDisplay:10.37 W/m2 -RA
09:40 41.6 °F 36.5 °F 30.37 in Calm   2 mph 82% 0 in WeatherDisplay:10.37 W/m2 -RA
09:45 41.5 °F 36.4 °F 30.37 in Calm   1 mph 82% 0 in WeatherDisplay:10.37 W/m2 -RA
09:50 41.5 °F 36.7 °F 30.36 in East 1 mph 2 mph 83% 0 in WeatherDisplay:10.37 W/m2 -RA
09:55 41.5 °F 37 °F 30.36 in Calm   1 mph 84% 0 in WeatherDisplay:10.37 W/m2 -RA
10:00 41.5 °F 37.3 °F 30.36 in Calm   1 mph 85% 0 in WeatherDisplay:10.37 W/m2 -RA
10:05 41.4 °F 37.2 °F 30.37 in Calm   2 mph 85% 0 in WeatherDisplay:10.37 W/m2 -RA
10:10 41.3 °F 37.4 °F 30.37 in East 2.3 mph 0.3 mph 86% 0 in WeatherDisplay:10.37 W/m2 -RA
10:15 41.2 °F 36.7 °F 30.37 in East 1 mph 1 mph 84% 0 in WeatherDisplay:10.37 W/m2 -RA
10:20 41 °F 37.1 °F 30.37 in East 1 mph 2 mph 86% 0 in WeatherDisplay:10.37 W/m2 -RA
10:25 40.9 °F 37.6 °F 30.38 in Calm   1 mph 88% 0 in WeatherDisplay:10.37 W/m2 -RA
10:30 40.8 °F 37.8 °F 30.38 in Calm   1 mph 89% 0 in WeatherDisplay:10.37 W/m2 -RA
10:35 40.8 °F 38.1 °F 30.37 in Calm   1 mph 90% 0 in WeatherDisplay:10.37 W/m2 -RA
10:40 40.4 °F 37.4 °F 30.37 in East 1.2 mph   89% 0 in WeatherDisplay:10.37 W/m2 -RA
10:45 40.3 °F 37.6 °F 30.37 in Calm   1 mph 90% 0.011 in WeatherDisplay:10.37 W/m2 -RA
10:50 40.2 °F 37.8 °F 30.36 in Calm   1 mph 91% 0.011 in WeatherDisplay:10.37 W/m2 -RA
10:55 40 °F 37.6 °F 30.37 in Calm   1 mph 91% 0.022 in WeatherDisplay:10.37 W/m2 -RA
11:00 40 °F 37.9 °F 30.37 in Calm   1 mph 92% 0.022 in WeatherDisplay:10.37 W/m2 -RA
11:05 40 °F 38.1 °F 30.37 in Calm   1 mph 93% 0.022 in WeatherDisplay:10.37 W/m2 -RA
11:10 39.7 °F 37.6 °F 30.37 in Calm     92% 0.032 in WeatherDisplay:10.37 W/m2 -RA
11:15 39.9 °F 38.3 °F 30.38 in Calm   1 mph 94% 0.032 in WeatherDisplay:10.37 W/m2 -RA
11:20 39.7 °F 37.8 °F 30.38 in Calm   1 mph 93% 0.032 in WeatherDisplay:10.37 W/m2 -RA
11:25 39.7 °F 37.8 °F 30.38 in Calm   1 mph 93% 0.032 in WeatherDisplay:10.37 W/m2 -RA
11:30 39.6 °F 37.8 °F 30.37 in Calm   1 mph 93% 0.032 in WeatherDisplay:10.37 W/m2 -RA
11:35 39.6 °F 37.7 °F 30.37 in Calm   1 mph 93% 0.043 in WeatherDisplay:10.37 W/m2 -RA
11:40 39.5 °F 37.4 °F 30.37 in East 1.2 mph   92% 0.043 in WeatherDisplay:10.37 W/m2 -RA
11:45 39.7 °F 38.1 °F 30.37 in Calm   1 mph 94% 0.032 in WeatherDisplay:10.37 W/m2 -RA
11:50 39.7 °F 37.8 °F 30.37 in Calm   1 mph 93% 0.032 in WeatherDisplay:10.37 W/m2 -RA
11:55 39.8 °F 38.2 °F 30.37 in Calm   1 mph 94% 0.022 in WeatherDisplay:10.37 W/m2 -RA
12:00 39.9 °F 38.3 °F 30.36 in Calm   2 mph 94% 0.032 in WeatherDisplay:10.37 W/m2 -RA
12:05 39.9 °F 38.3 °F 30.36 in Calm   1 mph 94% 0.032 in WeatherDisplay:10.37 W/m2 -RA
12:10 39.9 °F 38.3 °F 30.36 in Calm   1 mph 94% 0.022 in WeatherDisplay:10.37 W/m2 -RA
12:15 39.8 °F 38 °F 30.36 in East 1 mph 5 mph 93% 0.022 in WeatherDisplay:10.37 W/m2 -RA
12:20 39.8 °F 38.2 °F 30.35 in East 1 mph 2 mph 94% 0.022 in WeatherDisplay:10.37 W/m2 -RA
12:25 39.4 °F 37.5 °F 30.35 in East 2.3 mph 0.5 mph 93% 0.022 in WeatherDisplay:10.37 W/m2 -RA
12:30 39.3 °F 37.4 °F 30.35 in East 1 mph 2 mph 93% 0.032 in WeatherDisplay:10.37 W/m2 -RA
12:35 39.1 °F 37.5 °F 30.35 in Calm   2 mph 94% 0.022 in WeatherDisplay:10.37 W/m2 -RA
12:40 39 °F 37.4 °F 30.35 in East 1 mph 2 mph 94% 0.022 in WeatherDisplay:10.37 W/m2 -RA
12:45 38.8 °F 36.9 °F 30.34 in Calm   2 mph 93% 0.032 in WeatherDisplay:10.37 W/m2 -RA
12:50 38.8 °F 37.2 °F 30.34 in Calm   1 mph 94% 0.032 in WeatherDisplay:10.37 W/m2 -RA
12:55 38.7 °F 37.1 °F 30.34 in Calm   2 mph 94% 0.043 in WeatherDisplay:10.37 W/m2 -RA
13:00 38.6 °F 37.3 °F 30.34 in East 1 mph 2 mph 95% 0.043 in WeatherDisplay:10.37 W/m2 -RA
13:05 38.4 °F 36.8 °F 30.34 in Calm   7 mph 94% 0.043 in WeatherDisplay:10.37 W/m2 -RA
13:10 38.2 °F 36.6 °F 30.34 in East 1 mph 2 mph 94% 0.043 in WeatherDisplay:10.37 W/m2 -RA
13:15 38 °F 36.7 °F 30.33 in Calm   1 mph 95% 0.043 in WeatherDisplay:10.37 W/m2 -RA
13:20 37.9 °F 36.6 °F 30.33 in East 2.3 mph   95% 0.054 in WeatherDisplay:10.37 W/m2 -RA
13:25 37.6 °F 36.3 °F 30.34 in East 1.2 mph 0.1 mph 95% 0.054 in WeatherDisplay:10.37 W/m2 -RA
13:30 37.4 °F 36.1 °F 30.34 in Calm   2 mph 95% 0.043 in WeatherDisplay:10.37 W/m2 -RA
13:35 37.2 °F 35.9 °F 30.34 in Calm   1 mph 95% 0.054 in WeatherDisplay:10.37 W/m2 -RA
13:40 37 °F 35.7 °F 30.34 in Calm   1 mph 95% 0.054 in WeatherDisplay:10.37 W/m2 -RA
13:45 36.9 °F 35.6 °F 30.34 in Calm   1 mph 95% 0.054 in WeatherDisplay:10.37 W/m2 -RA
13:50 36.7 °F 35.4 °F 30.33 in Calm   1 mph 95% 0.065 in WeatherDisplay:10.37 W/m2 -RA
13:55 36.5 °F 35.2 °F 30.34 in East 2.3 mph 0.2 mph 95% 0.065 in WeatherDisplay:10.37 W/m2 -RA
14:00 36.4 °F 35.4 °F 30.34 in Calm   1 mph 96% 0.065 in WeatherDisplay:10.37 W/m2 -RA
14:05 36.4 °F 35.4 °F 30.34 in Calm   1 mph 96% 0.065 in WeatherDisplay:10.37 W/m2 OVC
14:10 36.4 °F 35.4 °F 30.33 in East 1 mph 2 mph 96% 0.065 in WeatherDisplay:10.37 W/m2 OVC
14:15 36.3 °F 35.3 °F 30.33 in Calm   2 mph 96% 0.076 in WeatherDisplay:10.37 W/m2 OVC
14:20 36.4 °F 35.4 °F 30.33 in East 2.3 mph 0.4 mph 96% 0.076 in WeatherDisplay:10.37 W/m2 OVC
14:25 36.2 °F 35.2 °F 30.33 in Calm   2 mph 96% 0.076 in WeatherDisplay:10.37 W/m2 OVC
14:30 36.1 °F 35.1 °F 30.33 in East 1 mph 2 mph 96% 0.076 in WeatherDisplay:10.37 W/m2 OVC
14:35 36.1 °F 35.1 °F 30.33 in Calm   1 mph 96% 0.065 in WeatherDisplay:10.37 W/m2 OVC
14:40 36.1 °F 35.1 °F 30.33 in Calm   1 mph 96% 0.065 in WeatherDisplay:10.37 W/m2 OVC
14:45 36.1 °F 35.1 °F 30.32 in East 1.2 mph   96% 0.054 in WeatherDisplay:10.37 W/m2 OVC
14:50 36.2 °F 35.2 °F 30.32 in Calm   1 mph 96% 0.043 in WeatherDisplay:10.37 W/m2 OVC
14:55 36.1 °F 35.1 °F 30.32 in Calm   1 mph 96% 0.032 in WeatherDisplay:10.37 W/m2 OVC
15:00 36.1 °F 35.1 °F 30.32 in Calm   1 mph 96% 0.032 in WeatherDisplay:10.37 W/m2 OVC
15:05 36.1 °F 35.1 °F 30.31 in Calm   1 mph 96% 0.022 in WeatherDisplay:10.37 W/m2 -RA
15:10 36.1 °F 35.1 °F 30.30 in East 1.2 mph 0.1 mph 96% 0.022 in WeatherDisplay:10.37 W/m2 -RA
15:15 36.1 °F 35.1 °F 30.30 in Calm   1 mph 96% 0.011 in WeatherDisplay:10.37 W/m2 -RA
15:20 36 °F 35 °F 30.30 in Calm   2 mph 96% 0 in WeatherDisplay:10.37 W/m2 -RA
15:25 36 °F 35 °F 30.30 in Calm   1 mph 96% 0 in WeatherDisplay:10.37 W/m2 -RA
15:30 35.9 °F 34.9 °F 30.30 in Calm   1 mph 96% 0 in WeatherDisplay:10.37 W/m2 -RA
15:35 35.8 °F 34.8 °F 30.30 in Calm   2 mph 96% 0 in WeatherDisplay:10.37 W/m2 -RA
15:40 35.9 °F 34.9 °F 30.31 in Calm   1 mph 96% 0 in WeatherDisplay:10.37 W/m2 -RA
15:45 35.8 °F 34.8 °F 30.31 in Calm   1 mph 96% 0 in WeatherDisplay:10.37 W/m2 -RA
15:50 35.8 °F 34.8 °F 30.31 in East 1 mph 1 mph 96% 0 in WeatherDisplay:10.37 W/m2 -RA
15:55 35.7 °F 34.7 °F 30.31 in Calm   1 mph 96% 0 in WeatherDisplay:10.37 W/m2 -RA
16:00 35.6 °F 34.6 °F 30.31 in Calm   1 mph 96% 0 in WeatherDisplay:10.37 W/m2 -RA
16:05 35.5 °F 34.5 °F 30.31 in Calm   1 mph 96% 0 in WeatherDisplay:10.37 W/m2 -SN
16:10 35.5 °F 34.5 °F 30.31 in Calm     96% 0 in WeatherDisplay:10.37 W/m2 -SN
16:15 35.5 °F 34.5 °F 30.30 in Calm   1 mph 96% 0 in WeatherDisplay:10.37 W/m2 -SN
16:20 35.4 °F 34.4 °F 30.31 in Calm   1 mph 96% 0 in WeatherDisplay:10.37 W/m2 -SN
16:25 35.3 °F 34.3 °F 30.31 in Calm   1 mph 96% 0 in WeatherDisplay:10.37 W/m2 -SN
16:30 35 °F 34 °F 30.31 in Calm   1 mph 96% 0 in WeatherDisplay:10.37 W/m2 -SN
16:35 34.8 °F 33.8 °F 30.31 in Calm   1 mph 96% 0 in WeatherDisplay:10.37 W/m2 -SN
16:40 34.7 °F 33.7 °F 30.31 in Calm   1 mph 96% 0 in WeatherDisplay:10.37 W/m2 -SN
16:45 34.5 °F 33.5 °F 30.31 in Calm     96% 0 in WeatherDisplay:10.37 W/m2 -SN
16:50 34.4 °F 33.4 °F 30.31 in Calm   1 mph 96% 0 in WeatherDisplay:10.37 W/m2 -SN
16:55 34.3 °F 33.3 °F 30.31 in Calm   1 mph 96% 0 in WeatherDisplay:10.37 W/m2 -SN
17:00 34.2 °F 33.2 °F 30.30 in Calm   1 mph 96% 0 in WeatherDisplay:10.37 W/m2 -SN
17:05 34.1 °F 33.1 °F 30.30 in Calm   1 mph 96% 0 in WeatherDisplay:10.37 W/m2 -SN
17:10 34.1 °F 33.1 °F 30.30 in East 1.2 mph   96% 0 in WeatherDisplay:10.37 W/m2 -SN
17:15 33.9 °F 32.9 °F 30.30 in East 1.2 mph   96% 0 in WeatherDisplay:10.37 W/m2 -SN
17:20 33.9 °F 32.9 °F 30.30 in Calm   1 mph 96% 0.011 in WeatherDisplay:10.37 W/m2 -SN
17:25 33.9 °F 32.9 °F 30.29 in Calm   1 mph 96% 0.011 in WeatherDisplay:10.37 W/m2 -SN
17:30 33.9 °F 32.9 °F 30.30 in Calm   1 mph 96% 0.011 in WeatherDisplay:10.37 W/m2 -SN
17:35 34 °F 33.2 °F 30.30 in Calm   1 mph 97% 0.011 in WeatherDisplay:10.37 W/m2 -SN
17:40 34.1 °F 33.3 °F 30.30 in Calm   2 mph 97% 0.011 in WeatherDisplay:10.37 W/m2 -SN
17:45 34.1 °F 33.3 °F 30.30 in Calm   1 mph 97% 0.011 in WeatherDisplay:10.37 W/m2 -SN
17:50 34.1 °F 33.3 °F 30.30 in Calm   2 mph 97% 0.011 in WeatherDisplay:10.37 W/m2 -SN
17:55 34.1 °F 33.3 °F 30.31 in Calm   2 mph 97% 0.022 in WeatherDisplay:10.37 W/m2 -SN
18:00 34.2 °F 33.4 °F 30.31 in Calm   2 mph 97% 0.022 in WeatherDisplay:10.37 W/m2 -SN
18:05 34.2 °F 33.4 °F 30.30 in Calm   1 mph 97% 0.022 in WeatherDisplay:10.37 W/m2 -SN
18:10 34.2 °F 33.4 °F 30.30 in Calm   1 mph 97% 0.022 in WeatherDisplay:10.37 W/m2 -SN
18:15 34.2 °F 33.4 °F 30.31 in East 1 mph 2 mph 97% 0.022 in WeatherDisplay:10.37 W/m2 -SN
18:20 34.2 °F 33.4 °F 30.31 in Calm   2 mph 97% 0.011 in WeatherDisplay:10.37 W/m2 -SN
18:25 34.2 °F 33.4 °F 30.30 in East 1 mph 1 mph 97% 0.022 in WeatherDisplay:10.37 W/m2 -SN
18:30 34.2 °F 33.4 °F 30.31 in East 2.3 mph 0.2 mph 97% 0.022 in WeatherDisplay:10.37 W/m2 -SN
18:35 34.2 °F 33.4 °F 30.30 in Calm   2 mph 97% 0.022 in WeatherDisplay:10.37 W/m2 -SN
18:40 34.3 °F 33.5 °F 30.30 in Calm   1 mph 97% 0.022 in WeatherDisplay:10.37 W/m2 -SN
18:45 34.4 °F 33.6 °F 30.31 in Calm   2 mph 97% 0.022 in WeatherDisplay:10.37 W/m2 -SN
18:50 34.3 °F 33.5 °F 30.32 in Calm   3 mph 97% 0.022 in WeatherDisplay:10.37 W/m2 -SN
18:55 34.4 °F 33.6 °F 30.32 in Calm   1 mph 97% 0.011 in WeatherDisplay:10.37 W/m2 -SN
19:00 34.4 °F 33.6 °F 30.31 in Calm   1 mph 97% 0.011 in WeatherDisplay:10.37 W/m2 -SN
19:05 34.4 °F 33.6 °F 30.32 in Calm   2 mph 97% 0.011 in WeatherDisplay:10.37 W/m2 -SN
19:10 34.4 °F 33.6 °F 30.31 in East 2.3 mph 0.1 mph 97% 0.011 in WeatherDisplay:10.37 W/m2 -SN
19:15 34.6 °F 33.8 °F 30.30 in Calm   1 mph 97% 0.011 in WeatherDisplay:10.37 W/m2 -SN
19:20 34.7 °F 33.9 °F 30.31 in Calm   1 mph 97% 0.011 in WeatherDisplay:10.37 W/m2 -SN
19:25 34.7 °F 33.9 °F 30.32 in East 1 mph 2 mph 97% 0 in WeatherDisplay:10.37 W/m2 -SN
19:30 34.7 °F 33.9 °F 30.32 in Calm   1 mph 97% 0 in WeatherDisplay:10.37 W/m2 -SN
Silver Leaf
Compliments of Weather Underground - 4 mb